createdAt,value
2017-11-27T00:04:07.429Z,8.33
2017-11-27T00:09:08.956Z,8.50
2017-11-27T00:14:11.252Z,7.80
2017-11-27T00:19:12.724Z,8.23
2017-11-27T00:24:14.426Z,7.60
2017-11-27T00:29:15.942Z,8.30
2017-11-27T00:34:18.184Z,9.83
2017-11-27T00:39:19.735Z,7.93
2017-11-27T00:44:21.214Z,7.83
2017-11-27T00:49:22.803Z,7.23
2017-11-27T00:54:24.370Z,8.30
2017-11-27T00:59:25.897Z,8.20
2017-11-27T01:04:27.395Z,8.10
2017-11-27T01:09:28.906Z,8.63
2017-11-27T01:14:30.474Z,7.20
2017-11-27T01:19:31.982Z,8.40
2017-11-27T01:24:33.498Z,7.27
2017-11-27T01:29:35.733Z,6.73
2017-11-27T01:34:37.258Z,6.80
2017-11-27T01:39:38.762Z,8.07
2017-11-27T01:44:40.294Z,7.27
2017-11-27T01:49:41.900Z,6.93
2017-11-27T01:54:43.398Z,6.93
2017-11-27T01:59:44.919Z,7.00
2017-11-27T02:04:46.402Z,7.77
2017-11-27T02:09:47.914Z,6.80
2017-11-27T02:14:49.399Z,7.23
2017-11-27T02:19:50.922Z,6.90
2017-11-27T02:24:52.463Z,7.90
2017-11-27T02:29:53.966Z,7.70
2017-11-27T02:34:55.498Z,8.00
2017-11-27T02:39:57.130Z,6.90
2017-11-27T02:44:59.378Z,10.27
2017-11-27T02:50:00.958Z,7.57
2017-11-27T02:55:03.472Z,6.63
2017-11-27T03:00:05.705Z,7.17
2017-11-27T03:05:07.191Z,6.27
2017-11-27T03:10:08.710Z,6.87
2017-11-27T03:15:10.214Z,6.37
2017-11-27T03:20:11.788Z,6.07
2017-11-27T03:25:13.538Z,5.80
2017-11-27T03:30:15.224Z,5.67
2017-11-27T03:35:16.896Z,6.13
2017-11-27T03:40:18.389Z,6.37
2017-11-27T03:45:20.627Z,5.67
2017-11-27T03:50:22.135Z,6.43
2017-11-27T03:55:23.651Z,6.10
2017-11-27T04:00:25.147Z,7.50
2017-11-27T04:05:26.652Z,6.00
2017-11-27T04:10:28.904Z,6.47
2017-11-27T04:15:30.411Z,6.93
2017-11-27T04:20:32.082Z,6.40
2017-11-27T04:25:33.643Z,8.23
2017-11-27T04:30:35.221Z,8.80
2017-11-27T04:35:36.724Z,6.60
2017-11-27T04:40:38.242Z,7.27
2017-11-27T04:45:40.528Z,6.83
2017-11-27T04:50:42.804Z,8.23
2017-11-27T04:55:45.030Z,6.90
2017-11-27T05:00:46.775Z,7.07
2017-11-27T05:05:48.290Z,8.70
2017-11-27T05:10:49.798Z,8.37
2017-11-27T05:15:52.181Z,8.57
2017-11-27T05:20:53.679Z,8.83
2017-11-27T05:25:55.142Z,9.97
2017-11-27T05:30:56.651Z,9.27
2017-11-27T05:35:58.235Z,8.73
2017-11-27T05:40:59.764Z,10.17
2017-11-27T05:46:01.257Z,10.47
2017-11-27T05:51:02.795Z,11.00
2017-11-27T05:56:04.331Z,8.73
2017-11-27T06:01:05.875Z,11.00
2017-11-27T06:06:07.414Z,9.97
2017-11-27T06:11:08.939Z,8.60
2017-11-27T06:16:11.222Z,8.57
2017-11-27T06:21:12.748Z,7.13
2017-11-27T06:26:14.251Z,7.73
2017-11-27T06:31:15.733Z,6.67
2017-11-27T06:36:17.302Z,8.40
2017-11-27T06:41:18.812Z,8.20
2017-11-27T06:46:20.349Z,6.90
2017-11-27T06:51:21.888Z,8.47
2017-11-27T07:01:32.644Z,8.83
2017-11-27T07:06:34.202Z,7.80
2017-11-27T07:11:35.740Z,9.10
2017-11-27T07:16:37.320Z,10.20
2017-11-27T07:21:38.829Z,9.43
2017-11-27T07:26:40.364Z,9.10
2017-11-27T07:31:41.850Z,9.60
2017-11-27T07:36:43.346Z,9.60
2017-11-27T07:41:44.967Z,10.33
2017-11-27T07:46:46.481Z,11.60
2017-11-27T07:51:47.967Z,9.70
2017-11-27T07:56:50.242Z,8.87
2017-11-27T08:01:52.539Z,12.00
2017-11-27T08:06:54.825Z,9.30
2017-11-27T08:11:57.077Z,6.57
2017-11-27T08:16:58.620Z,7.33
2017-11-27T08:22:00.304Z,9.03
2017-11-27T08:27:01.831Z,6.60
2017-11-27T08:32:03.374Z,7.30
2017-11-27T08:37:05.629Z,6.90
2017-11-27T08:42:07.137Z,7.70
2017-11-27T08:47:08.666Z,6.13
2017-11-27T08:52:10.245Z,8.20
2017-11-27T08:57:11.743Z,7.20
2017-11-27T09:02:13.294Z,8.80
2017-11-27T09:07:15.658Z,8.30
2017-11-27T09:12:17.151Z,9.70
2017-11-27T09:17:19.417Z,8.83
2017-11-27T09:22:20.948Z,9.60
2017-11-27T09:27:22.462Z,11.60
2017-11-27T09:32:24.711Z,10.43
2017-11-27T09:37:26.224Z,11.70
2017-11-27T09:42:28.496Z,11.93
2017-11-27T09:47:29.990Z,11.97
2017-11-27T09:52:31.569Z,12.77
2017-11-27T09:57:33.079Z,13.90
2017-11-27T10:02:34.655Z,13.00
2017-11-27T10:07:36.197Z,12.23
2017-11-27T10:12:37.735Z,12.40
2017-11-27T10:17:39.232Z,12.37
2017-11-27T10:22:40.682Z,12.37
2017-11-27T10:27:42.218Z,11.40
2017-11-27T10:32:43.743Z,11.37
2017-11-27T10:37:45.267Z,13.20
2017-11-27T10:42:46.771Z,12.37
2017-11-27T10:47:48.339Z,12.67
2017-11-27T10:52:49.845Z,11.87
2017-11-27T10:57:52.135Z,12.40
2017-11-27T11:02:53.815Z,12.53
2017-11-27T11:07:55.350Z,14.40
2017-11-27T11:12:56.868Z,12.67
2017-11-27T11:17:58.395Z,12.23
2017-11-27T11:23:00.707Z,11.33
2017-11-27T11:28:02.256Z,12.50
2017-11-27T11:33:04.558Z,11.60
2017-11-27T11:38:06.055Z,10.63
2017-11-27T11:43:07.567Z,9.30
2017-11-27T11:48:09.833Z,8.20
2017-11-27T11:53:11.377Z,7.70
2017-11-27T11:58:12.955Z,8.57
2017-11-27T12:03:14.515Z,6.37
2017-11-27T12:08:16.013Z,6.57
2017-11-27T12:13:17.554Z,6.23
2017-11-27T12:18:19.126Z,6.47
2017-11-27T12:23:20.665Z,5.10
2017-11-27T12:28:22.306Z,5.07
2017-11-27T12:33:24.569Z,5.60
2017-11-27T12:38:26.114Z,4.60
2017-11-27T12:43:27.633Z,4.07
2017-11-27T12:48:29.148Z,3.50
2017-11-27T12:53:30.757Z,3.50
2017-11-27T12:58:32.302Z,4.70
2017-11-27T13:03:33.871Z,3.30
2017-11-27T13:08:35.379Z,2.83
2017-11-27T13:13:36.877Z,3.47
2017-11-27T13:18:38.403Z,3.60
2017-11-27T13:23:40.707Z,3.53
2017-11-27T13:28:42.200Z,3.27
2017-11-27T13:33:43.743Z,2.50
2017-11-27T13:38:45.284Z,3.23
2017-11-27T13:43:47.524Z,3.30
2017-11-27T13:48:49.122Z,3.47
2017-11-27T13:53:50.718Z,3.20
2017-11-27T13:58:52.245Z,5.57
2017-11-27T14:03:53.760Z,3.40
2017-11-27T14:08:55.266Z,3.13
2017-11-27T14:13:56.988Z,2.73
2017-11-27T14:18:58.560Z,3.23
2017-11-27T14:24:00.108Z,2.87
2017-11-27T14:29:02.392Z,3.00
2017-11-27T14:34:04.675Z,3.00
2017-11-27T14:39:06.943Z,2.90
2017-11-27T14:44:08.466Z,3.43
2017-11-27T14:49:10.030Z,3.37
2017-11-27T14:54:11.565Z,3.10
2017-11-27T14:59:13.834Z,2.43
2017-11-27T15:04:16.112Z,2.80
2017-11-27T15:09:17.682Z,3.87
2017-11-27T15:14:19.250Z,2.87
2017-11-27T15:19:20.826Z,3.77
2017-11-27T15:24:22.320Z,3.30
2017-11-27T15:29:23.826Z,3.83
2017-11-27T15:34:25.419Z,3.27
2017-11-27T15:39:26.977Z,2.70
2017-11-27T15:44:28.547Z,2.97
2017-11-27T15:49:30.039Z,2.10
2017-11-27T15:54:32.326Z,2.57
2017-11-27T15:59:34.713Z,2.10
2017-11-27T16:04:37.040Z,2.33
2017-11-27T16:09:38.990Z,2.43
2017-11-27T16:14:40.558Z,2.50
2017-11-27T16:19:42.176Z,2.50
2017-11-27T16:24:43.658Z,2.37
2017-11-27T16:29:45.235Z,2.77
2017-11-27T16:34:46.771Z,2.10
2017-11-27T16:39:48.364Z,2.20
2017-11-27T16:44:49.900Z,2.50
2017-11-27T16:49:51.439Z,2.20
2017-11-27T16:54:52.928Z,2.40
2017-11-27T16:59:54.477Z,2.20
2017-11-27T17:04:55.990Z,4.50
2017-11-27T17:09:57.528Z,2.13
2017-11-27T17:14:59.309Z,1.90
2017-11-27T17:20:00.849Z,2.30
2017-11-27T17:25:02.377Z,2.90
2017-11-27T17:30:03.952Z,2.00
2017-11-27T17:35:05.509Z,3.70
2017-11-27T17:40:07.184Z,2.20
2017-11-27T17:45:08.699Z,2.07
2017-11-27T17:50:10.251Z,1.77
2017-11-27T17:55:11.849Z,1.73
2017-11-27T18:00:13.388Z,2.67
2017-11-27T18:05:15.728Z,1.80
2017-11-27T18:10:17.321Z,1.73
2017-11-27T18:15:19.687Z,2.53
2017-11-27T18:20:21.405Z,3.37
2017-11-27T18:25:22.991Z,1.90
2017-11-27T18:30:24.531Z,2.60
2017-11-27T18:35:26.088Z,2.30
2017-11-27T18:40:28.350Z,2.30
2017-11-27T18:45:29.935Z,2.47
2017-11-27T18:50:31.623Z,2.47
2017-11-27T18:55:33.899Z,2.20
2017-11-27T19:00:36.189Z,2.47
2017-11-27T19:05:38.692Z,2.30
2017-11-27T19:10:40.287Z,3.13
2017-11-27T19:15:41.854Z,2.03
2017-11-27T19:20:43.424Z,3.20
2017-11-27T19:25:45.010Z,3.10
2017-11-27T19:30:46.533Z,3.60
2017-11-27T19:35:48.125Z,3.10
2017-11-27T19:40:49.639Z,4.40
2017-11-27T19:45:51.406Z,2.63
2017-11-27T19:50:53.737Z,2.37
2017-11-27T19:55:55.325Z,3.30
2017-11-27T20:00:56.828Z,3.10
2017-11-27T20:05:59.154Z,3.80
2017-11-27T20:11:00.709Z,2.70
2017-11-27T20:16:02.480Z,4.33
2017-11-27T20:21:04.120Z,2.80
2017-11-27T20:26:05.657Z,2.40
2017-11-27T20:31:07.263Z,2.77
2017-11-27T20:36:08.956Z,2.53
2017-11-27T20:41:10.542Z,2.37
2017-11-27T20:46:12.310Z,2.00
2017-11-27T20:51:13.940Z,2.50
2017-11-27T20:56:15.563Z,2.27
2017-11-27T21:01:17.188Z,2.27
2017-11-27T21:06:18.784Z,3.97
2017-11-27T21:11:20.428Z,1.80
2017-11-27T21:16:22.021Z,1.50
2017-11-27T21:21:23.742Z,1.47
2017-11-27T21:26:25.296Z,1.53
2017-11-27T21:31:26.816Z,1.57
2017-11-27T21:36:29.143Z,2.03
2017-11-27T21:41:30.689Z,1.60
2017-11-27T21:46:32.342Z,1.93
2017-11-27T21:51:33.970Z,1.53
2017-11-27T21:56:35.527Z,1.90
2017-11-27T22:01:37.060Z,1.60
2017-11-27T22:06:38.660Z,1.60
2017-11-27T22:11:40.196Z,1.60
2017-11-27T22:16:41.824Z,1.50
2017-11-27T22:21:43.364Z,1.53
2017-11-27T22:26:44.861Z,1.53
2017-11-27T22:31:46.394Z,1.67
2017-11-27T22:36:47.939Z,1.47
2017-11-27T22:41:49.507Z,1.60
2017-11-27T22:46:51.034Z,1.50
2017-11-27T22:51:52.541Z,2.27
2017-11-27T22:56:54.098Z,1.40
2017-11-27T23:01:55.627Z,1.30
2017-11-27T23:06:57.181Z,1.47
2017-11-27T23:11:58.955Z,1.57
2017-11-27T23:17:00.501Z,1.10
2017-11-27T23:22:02.045Z,1.70
2017-11-27T23:27:03.659Z,1.30
2017-11-27T23:32:05.407Z,1.50
2017-11-27T23:37:07.051Z,1.40
2017-11-27T23:42:08.627Z,1.63
2017-11-27T23:47:10.159Z,1.80
2017-11-27T23:52:11.672Z,1.63
2017-11-27T23:57:13.160Z,1.30
